Time;durP1;ratioP1;P1;durP2;ratioP2;P2;SDS_P1;SDS_P2;PMS_P1;PMS_P2;Temp;Humidity;BMP_temperature;BMP_pressure;BME280_temperature;BME280_humidity;BME280_pressure;Samples;Min_cycle;Max_cycle;Signal;HPM_P1;HPM_P2
2021/08/27 00:01:31;;;;;;;1.70;0.43;;;14.80;99.90;;;;;;5059840;28;20215;-85
2021/08/27 00:03:56;;;;;;;0.07;0.07;;;14.80;99.90;;;;;;5059692;28;20204;-86
2021/08/27 00:06:22;;;;;;;0.13;0.13;;;14.80;99.90;;;;;;5062638;28;20232;-85
2021/08/27 00:08:47;;;;;;;1.50;0.47;;;14.80;99.90;;;;;;5064794;28;20639;-86
2021/08/27 00:11:14;;;;;;;0.10;0.10;;;14.80;99.90;;;;;;5071252;28;20301;-86
2021/08/27 00:13:40;;;;;;;0.30;0.30;;;14.80;99.90;;;;;;5068020;28;20180;-86
2021/08/27 00:16:06;;;;;;;0.30;0.30;;;14.70;99.90;;;;;;5063092;28;20242;-86
2021/08/27 00:18:32;;;;;;;1.13;0.33;;;14.70;99.90;;;;;;5057741;28;20190;-85
2021/08/27 00:20:58;;;;;;;0.30;0.17;;;14.80;99.90;;;;;;5062138;28;20233;-86
2021/08/27 00:23:24;;;;;;;0.20;0.20;;;14.80;99.90;;;;;;5063695;28;20201;-86
2021/08/27 00:25:49;;;;;;;0.17;0.17;;;14.80;99.90;;;;;;5065489;28;20194;-86
2021/08/27 00:28:15;;;;;;;0.20;0.20;;;14.80;99.90;;;;;;5060298;28;20193;-85
2021/08/27 00:30:40;;;;;;;0.10;0.10;;;14.80;99.90;;;;;;5070509;28;20205;-85
2021/08/27 00:33:06;;;;;;;0.13;0.13;;;14.70;99.90;;;;;;5060207;28;20191;-85
2021/08/27 00:35:31;;;;;;;0.20;0.20;;;14.60;99.90;;;;;;5053210;28;20610;-86
2021/08/27 00:37:57;;;;;;;0.30;0.30;;;14.60;99.90;;;;;;5070840;28;20178;-86
2021/08/27 00:40:29;;;;;;;1.70;0.40;;;14.60;99.90;;;;;;5068234;28;20181;-85
2021/08/27 00:42:54;;;;;;;0.20;0.20;;;14.40;99.90;;;;;;5061022;28;20230;-86
2021/08/27 00:45:20;;;;;;;0.20;0.20;;;14.40;99.90;;;;;;5055854;28;20182;-86
2021/08/27 00:47:46;;;;;;;0.20;0.20;;;14.30;99.90;;;;;;5059201;28;20219;-85
2021/08/27 00:50:11;;;;;;;0.10;0.10;;;14.30;99.90;;;;;;5061586;28;20185;-86
2021/08/27 00:52:41;;;;;;;0.20;0.20;;;14.30;99.90;;;;;;5067756;28;20296;-85
2021/08/27 00:55:07;;;;;;;0.17;0.17;;;14.40;99.90;;;;;;5093816;28;20214;-85
2021/08/27 00:57:33;;;;;;;0.17;0.17;;;14.40;99.90;;;;;;5065883;28;20267;-85
2021/08/27 00:59:59;;;;;;;0.30;0.30;;;14.50;99.90;;;;;;5075682;28;20181;-86
2021/08/27 01:02:25;;;;;;;0.50;0.37;;;14.40;99.90;;;;;;5064978;28;20672;-86
2021/08/27 01:04:54;;;;;;;0.10;0.10;;;14.40;99.90;;;;;;5070685;28;20717;-85
2021/08/27 01:07:30;;;;;;;0.30;0.30;;;14.50;99.90;;;;;;5075910;28;20181;-85
2021/08/27 01:10:18;;;;;;;0.20;0.20;;;14.40;99.90;;;;;;5060877;28;20180;-86
2021/08/27 01:13:11;;;;;;;0.20;0.20;;;14.40;99.90;;;;;;5058174;28;20303;-87
2021/08/27 01:15:54;;;;;;;1.03;1.03;;;14.40;99.90;;;;;;5068010;28;20177;-86
2021/08/27 01:18:52;;;;;;;0.10;0.10;;;14.20;99.90;;;;;;5059357;28;20199;-86
2021/08/27 01:21:50;;;;;;;0.10;0.10;;;14.20;99.90;;;;;;5058630;28;20224;-85
2021/08/27 01:24:18;;;;;;;0.20;0.20;;;14.20;99.90;;;;;;5073069;28;20234;-86
2021/08/27 01:26:53;;;;;;;0.27;0.27;;;14.30;99.90;;;;;;5059865;28;20949;-86
2021/08/27 01:29:35;;;;;;;0.10;0.10;;;14.30;99.90;;;;;;5074757;28;20557;-86
2021/08/27 01:35:25;;;;;;;0.87;0.20;;;14.40;99.90;;;;;;5068274;28;20370;-86
2021/08/27 01:37:54;;;;;;;0.10;0.10;;;14.40;99.90;;;;;;5065995;28;20209;-88
2021/08/27 01:40:22;;;;;;;0.03;0.03;;;14.40;99.90;;;;;;5069921;28;20264;-86
2021/08/27 01:42:49;;;;;;;0.10;0.10;;;14.50;99.90;;;;;;5070677;28;20612;-86
2021/08/27 01:45:17;;;;;;;0.20;0.20;;;14.40;99.90;;;;;;5069464;28;20649;-85
2021/08/27 01:47:44;;;;;;;0.33;0.20;;;14.30;99.90;;;;;;5060877;28;20185;-86
2021/08/27 01:50:11;;;;;;;0.10;0.10;;;14.10;99.90;;;;;;5072849;28;20186;-86
2021/08/27 01:52:39;;;;;;;0.10;0.10;;;14.20;99.90;;;;;;5062357;28;20312;-85
2021/08/27 01:55:08;;;;;;;0.57;0.20;;;14.20;99.90;;;;;;5063595;28;20181;-85
2021/08/27 01:57:36;;;;;;;1.03;0.20;;;14.10;99.90;;;;;;5070421;28;20212;-86
2021/08/27 02:00:06;;;;;;;0.13;0.13;;;13.90;99.90;;;;;;5070448;28;20641;-86
2021/08/27 02:02:33;;;;;;;0.10;0.10;;;14.00;99.90;;;;;;5072175;28;20209;-86
2021/08/27 02:05:03;;;;;;;0.20;0.20;;;14.00;99.90;;;;;;5070334;28;20569;-86
2021/08/27 02:07:29;;;;;;;0.10;0.10;;;14.10;99.90;;;;;;5074322;28;20197;-86
2021/08/27 02:09:56;;;;;;;0.20;0.20;;;14.00;99.90;;;;;;5067929;28;20185;-86
2021/08/27 02:12:23;;;;;;;0.23;0.20;;;14.10;99.90;;;;;;5074442;28;20217;-86
2021/08/27 02:14:50;;;;;;;1.90;1.80;;;14.10;99.90;;;;;;5065499;28;20220;-85
2021/08/27 02:17:16;;;;;;;0.10;0.10;;;14.00;99.90;;;;;;5061151;28;20274;-86
2021/08/27 02:19:43;;;;;;;0.13;0.10;;;14.10;99.90;;;;;;5071599;28;20704;-87
2021/08/27 02:22:12;;;;;;;0.30;0.30;;;14.10;99.90;;;;;;5060033;28;20205;-87
2021/08/27 02:24:45;;;;;;;0.20;0.20;;;14.20;99.90;;;;;;5093274;28;20768;-87
2021/08/27 02:27:11;;;;;;;1.07;0.30;;;14.20;99.90;;;;;;5072408;28;20284;-85
2021/08/27 02:29:40;;;;;;;0.07;0.07;;;13.90;99.90;;;;;;5070734;28;20191;-85
2021/08/27 02:32:09;;;;;;;0.20;0.20;;;13.90;99.90;;;;;;5059614;28;20214;-86
2021/08/27 02:34:37;;;;;;;0.20;0.20;;;13.90;99.90;;;;;;5063852;28;20187;-85
2021/08/27 02:37:05;;;;;;;0.10;0.10;;;14.00;99.90;;;;;;5073632;28;20236;-85
2021/08/27 02:39:30;;;;;;;0.20;0.20;;;14.00;99.90;;;;;;5073706;28;20181;-85
2021/08/27 02:41:56;;;;;;;0.10;0.10;;;13.90;99.90;;;;;;5071526;28;20220;-85
2021/08/27 02:44:23;;;;;;;0.47;0.47;;;14.00;99.90;;;;;;5073750;28;20230;-85
2021/08/27 02:46:48;;;;;;;0.10;0.10;;;13.90;99.90;;;;;;5069923;28;20190;-85
2021/08/27 02:49:14;;;;;;;0.10;0.10;;;14.00;99.90;;;;;;5071908;28;20234;-85
2021/08/27 02:52:12;;;;;;;0.10;0.10;;;14.00;99.90;;;;;;5058616;28;20910;-87
2021/08/27 02:55:06;;;;;;;0.10;0.10;;;14.00;99.90;;;;;;5066795;28;20735;-86
2021/08/27 02:57:40;;;;;;;0.10;0.10;;;14.00;99.90;;;;;;5055178;28;20198;-87
2021/08/27 03:00:06;;;;;;;0.17;0.17;;;13.90;99.90;;;;;;5068408;28;20187;-85
2021/08/27 03:02:32;;;;;;;0.10;0.10;;;13.90;99.90;;;;;;5064255;28;20202;-86
2021/08/27 03:05:14;;;;;;;0.10;0.10;;;13.90;99.90;;;;;;5056457;28;20566;-86
2021/08/27 03:07:44;;;;;;;0.20;0.10;;;13.80;99.90;;;;;;5057594;28;20239;-86
2021/08/27 03:10:22;;;;;;;0.10;0.10;;;13.70;99.90;;;;;;5064782;28;20191;-86
2021/08/27 03:13:03;;;;;;;0.30;0.30;;;13.60;99.90;;;;;;5073897;28;20680;-86
2021/08/27 03:15:41;;;;;;;0.20;0.20;;;13.40;99.90;;;;;;5066744;28;20544;-86
2021/08/27 03:18:14;;;;;;;0.10;0.10;;;13.30;99.90;;;;;;5101538;28;20729;-86
2021/08/27 03:20:54;;;;;;;0.53;0.30;;;13.20;99.90;;;;;;5070373;28;20218;-86
2021/08/27 03:23:20;;;;;;;0.20;0.20;;;13.10;99.90;;;;;;5065697;28;20187;-86
2021/08/27 03:25:47;;;;;;;0.47;0.37;;;13.00;99.90;;;;;;5076665;28;20557;-86
2021/08/27 03:28:21;;;;;;;0.40;0.10;;;12.90;99.90;;;;;;5057246;28;20293;-86
2021/08/27 03:30:50;;;;;;;2.33;0.87;;;12.90;99.90;;;;;;5061650;28;20206;-86
2021/08/27 03:33:16;;;;;;;0.10;0.10;;;12.90;99.90;;;;;;5055120;28;20216;-86
2021/08/27 03:35:43;;;;;;;0.20;0.20;;;13.10;99.90;;;;;;5067993;28;20181;-86
2021/08/27 03:38:10;;;;;;;2.80;0.23;;;13.00;99.90;;;;;;5058748;28;20249;-84
2021/08/27 03:40:36;;;;;;;0.30;0.30;;;13.00;99.90;;;;;;5067166;28;20690;-86
2021/08/27 03:43:02;;;;;;;0.20;0.20;;;12.90;99.90;;;;;;5068334;28;20665;-86
2021/08/27 03:45:29;;;;;;;0.10;0.10;;;13.00;99.90;;;;;;5057312;28;20643;-86
2021/08/27 03:47:57;;;;;;;0.20;0.20;;;13.10;99.90;;;;;;5095463;28;20212;-86
2021/08/27 03:50:38;;;;;;;0.10;0.10;;;13.20;99.90;;;;;;5069931;28;20241;-86
2021/08/27 03:53:06;;;;;;;0.10;0.10;;;13.30;99.90;;;;;;5063308;28;20193;-86
2021/08/27 03:55:33;;;;;;;0.30;0.10;;;13.20;99.90;;;;;;5060535;28;20185;-85
2021/08/27 03:58:00;;;;;;;0.27;0.20;;;13.30;99.90;;;;;;5070275;28;20188;-86
2021/08/27 04:00:26;;;;;;;0.10;0.10;;;13.30;99.90;;;;;;5062106;28;20182;-87
2021/08/27 04:02:53;;;;;;;0.10;0.10;;;13.20;99.90;;;;;;5067062;28;20356;-84
2021/08/27 04:05:21;;;;;;;0.10;0.10;;;13.10;99.90;;;;;;5062629;28;20212;-83
2021/08/27 04:07:47;;;;;;;0.10;0.10;;;13.20;99.90;;;;;;5059107;28;20593;-85
2021/08/27 04:10:19;;;;;;;0.23;0.23;;;13.20;99.90;;;;;;5063735;28;20565;-85
2021/08/27 04:12:45;;;;;;;0.17;0.17;;;13.30;99.90;;;;;;5055229;28;20206;-86
2021/08/27 04:15:13;;;;;;;0.30;0.30;;;13.30;99.90;;;;;;5091171;28;20229;-85
2021/08/27 04:17:40;;;;;;;0.57;0.50;;;13.20;99.90;;;;;;5057162;28;20182;-85
2021/08/27 04:20:09;;;;;;;0.20;0.17;;;13.30;99.90;;;;;;5059272;28;20170;-86
2021/08/27 04:22:35;;;;;;;0.80;0.20;;;13.40;99.90;;;;;;5065189;28;20217;-86
2021/08/27 04:25:00;;;;;;;0.37;0.37;;;13.40;99.90;;;;;;5059349;28;20197;-85
2021/08/27 04:27:26;;;;;;;0.10;0.10;;;13.50;99.90;;;;;;5069266;28;20182;-86
2021/08/27 04:29:52;;;;;;;0.20;0.20;;;13.50;99.90;;;;;;5070496;28;20216;-85
2021/08/27 04:32:19;;;;;;;0.60;0.50;;;13.50;99.90;;;;;;5064976;28;20208;-85
2021/08/27 04:34:45;;;;;;;0.40;0.40;;;13.50;99.90;;;;;;5058497;28;20182;-85
2021/08/27 04:37:11;;;;;;;0.60;0.30;;;13.60;99.90;;;;;;5060262;28;20208;-85
2021/08/27 04:39:36;;;;;;;0.37;0.23;;;13.60;99.90;;;;;;5052438;28;20191;-86
2021/08/27 04:42:03;;;;;;;0.20;0.20;;;13.60;99.90;;;;;;5062975;28;20213;-85
2021/08/27 04:44:28;;;;;;;0.50;0.50;;;13.60;99.90;;;;;;5064960;28;20224;-85
2021/08/27 04:46:54;;;;;;;0.20;0.20;;;13.70;99.90;;;;;;5062254;28;20204;-88
2021/08/27 04:49:20;;;;;;;0.57;0.27;;;13.60;99.90;;;;;;5072014;28;20186;-88
2021/08/27 04:51:45;;;;;;;0.20;0.20;;;13.60;99.90;;;;;;5075723;28;20240;-90
2021/08/27 04:54:11;;;;;;;0.10;0.10;;;13.70;99.90;;;;;;5067803;28;20174;-84
2021/08/27 04:56:36;;;;;;;0.20;0.20;;;13.70;99.90;;;;;;5061407;28;20235;-85
2021/08/27 04:59:02;;;;;;;0.47;0.30;;;13.80;99.90;;;;;;5065061;28;20179;-84
2021/08/27 05:01:27;;;;;;;0.13;0.13;;;13.90;99.90;;;;;;5064738;28;20220;-84
2021/08/27 05:03:53;;;;;;;0.40;0.40;;;13.90;99.90;;;;;;5063030;28;20181;-84
2021/08/27 05:06:19;;;;;;;0.10;0.10;;;14.00;99.90;;;;;;5057393;28;20225;-84
2021/08/27 05:08:44;;;;;;;0.40;0.40;;;14.00;99.90;;;;;;5061305;28;20197;-86
2021/08/27 05:11:10;;;;;;;0.40;0.40;;;14.10;99.90;;;;;;5057302;28;20213;-87
2021/08/27 05:13:36;;;;;;;0.17;0.17;;;14.10;99.90;;;;;;5062603;28;20549;-88
2021/08/27 05:16:02;;;;;;;0.20;0.20;;;14.10;99.90;;;;;;5060833;28;20590;-86
2021/08/27 05:18:29;;;;;;;0.20;0.20;;;14.10;99.90;;;;;;5063080;28;20192;-86
2021/08/27 05:20:56;;;;;;;0.60;0.60;;;14.10;99.90;;;;;;5072966;28;20215;-87
2021/08/27 05:23:22;;;;;;;1.30;0.30;;;14.20;99.90;;;;;;5069007;28;20190;-84
2021/08/27 05:25:48;;;;;;;0.30;0.30;;;14.20;99.90;;;;;;5063299;28;20683;-84
2021/08/27 05:28:13;;;;;;;0.20;0.20;;;14.30;99.90;;;;;;5055041;28;20173;-86
2021/08/27 05:30:39;;;;;;;0.30;0.30;;;14.00;99.90;;;;;;5067948;28;20946;-85
2021/08/27 05:33:07;;;;;;;0.20;0.20;;;14.10;99.90;;;;;;5059013;28;20599;-85
2021/08/27 05:35:32;;;;;;;0.10;0.10;;;14.10;99.90;;;;;;5068988;28;20218;-87
2021/08/27 05:37:58;;;;;;;0.47;0.47;;;14.20;99.90;;;;;;5062341;28;20690;-87
2021/08/27 05:40:23;;;;;;;1.07;0.60;;;14.20;99.90;;;;;;5061370;28;20239;-83
2021/08/27 05:42:49;;;;;;;0.20;0.20;;;14.30;99.90;;;;;;5068684;28;20177;-84
2021/08/27 05:45:16;;;;;;;0.60;0.60;;;14.40;99.90;;;;;;5060683;28;20258;-85
2021/08/27 05:47:42;;;;;;;0.20;0.20;;;14.40;99.90;;;;;;5068267;28;20182;-85
2021/08/27 05:50:10;;;;;;;0.10;0.10;;;14.50;99.90;;;;;;5068080;28;20239;-84
2021/08/27 05:52:36;;;;;;;0.90;0.83;;;14.50;99.90;;;;;;5059207;28;20251;-85
2021/08/27 05:55:03;;;;;;;0.20;0.20;;;14.60;99.90;;;;;;5062443;28;20257;-84
2021/08/27 05:57:29;;;;;;;0.13;0.13;;;14.70;99.90;;;;;;5065596;28;20269;-84
2021/08/27 05:59:54;;;;;;;0.20;0.20;;;14.70;99.90;;;;;;5064680;28;20651;-84
2021/08/27 06:02:20;;;;;;;0.20;0.20;;;14.80;99.90;;;;;;5071390;28;20226;-85
2021/08/27 06:04:46;;;;;;;0.40;0.20;;;14.80;99.90;;;;;;5068858;28;20268;-85
2021/08/27 06:07:12;;;;;;;0.20;0.20;;;14.90;99.90;;;;;;5067288;28;20190;-84
2021/08/27 06:09:38;;;;;;;0.30;0.30;;;14.80;99.90;;;;;;5067416;28;20186;-84
2021/08/27 06:12:04;;;;;;;0.20;0.20;;;14.90;99.90;;;;;;5067662;28;20220;-85
2021/08/27 06:14:29;;;;;;;1.13;0.67;;;14.90;99.90;;;;;;5069629;28;20258;-85
2021/08/27 06:16:56;;;;;;;0.10;0.10;;;14.90;99.90;;;;;;5062016;28;20281;-84
2021/08/27 06:19:22;;;;;;;0.30;0.30;;;15.10;99.90;;;;;;5069283;28;20681;-85
2021/08/27 06:21:47;;;;;;;0.20;0.20;;;15.30;99.90;;;;;;5072036;28;20293;-85
2021/08/27 06:24:13;;;;;;;0.20;0.20;;;15.30;99.90;;;;;;5070381;28;20566;-85
2021/08/27 06:26:38;;;;;;;0.20;0.20;;;15.30;99.90;;;;;;5072518;28;20225;-85
2021/08/27 06:29:04;;;;;;;0.40;0.30;;;15.30;99.90;;;;;;5071237;28;20676;-85
2021/08/27 06:31:31;;;;;;;0.30;0.30;;;15.50;99.90;;;;;;5063874;28;20224;-86
2021/08/27 06:33:57;;;;;;;0.53;0.33;;;15.60;99.90;;;;;;5068131;28;20186;-85
2021/08/27 06:36:22;;;;;;;0.57;0.57;;;15.40;99.90;;;;;;5070627;28;20187;-85
2021/08/27 06:38:48;;;;;;;0.40;0.40;;;15.40;99.90;;;;;;5068529;28;20205;-85
2021/08/27 06:41:17;;;;;;;0.30;0.30;;;15.60;99.90;;;;;;5069903;28;20305;-85
2021/08/27 06:43:45;;;;;;;1.80;0.97;;;15.80;99.90;;;;;;5071965;28;20227;-85
2021/08/27 06:46:23;;;;;;;0.30;0.30;;;15.30;99.90;;;;;;5066456;28;20603;-85
2021/08/27 06:48:49;;;;;;;0.50;0.50;;;15.40;99.90;;;;;;5071670;28;20247;-84
2021/08/27 06:51:16;;;;;;;0.20;0.20;;;15.60;99.90;;;;;;5061693;28;20211;-85
2021/08/27 06:53:42;;;;;;;0.70;0.60;;;15.60;99.90;;;;;;5065665;28;20198;-85
2021/08/27 06:56:08;;;;;;;1.43;1.00;;;15.80;99.90;;;;;;5069302;28;20186;-85
2021/08/27 06:58:34;;;;;;;1.60;0.83;;;15.90;99.90;;;;;;5069404;28;20179;-85
2021/08/27 07:01:00;;;;;;;0.33;0.30;;;16.10;99.90;;;;;;5073732;28;20204;-85
2021/08/27 07:03:26;;;;;;;0.50;0.50;;;16.20;99.90;;;;;;5079033;28;20266;-85
2021/08/27 07:05:51;;;;;;;0.33;0.33;;;16.00;99.90;;;;;;5066052;28;20654;-84
2021/08/27 07:08:17;;;;;;;0.40;0.40;;;16.00;99.90;;;;;;5066832;28;20715;-84
2021/08/27 07:10:43;;;;;;;0.43;0.43;;;16.10;99.90;;;;;;5067535;28;20210;-84
2021/08/27 07:13:09;;;;;;;0.63;0.47;;;16.10;99.90;;;;;;5063654;28;20196;-83
2021/08/27 07:15:35;;;;;;;0.50;0.50;;;16.20;99.90;;;;;;5066748;28;20285;-83
2021/08/27 07:18:01;;;;;;;0.40;0.30;;;16.20;99.90;;;;;;5074736;28;20199;-83
2021/08/27 07:20:27;;;;;;;0.60;0.60;;;16.30;99.90;;;;;;5069064;28;20199;-83
2021/08/27 07:22:53;;;;;;;0.57;0.40;;;16.40;99.90;;;;;;5104518;28;20184;-84
2021/08/27 07:25:19;;;;;;;0.30;0.30;;;16.50;99.90;;;;;;5070124;28;20199;-83
2021/08/27 07:27:45;;;;;;;0.37;0.37;;;16.50;99.90;;;;;;5072751;28;20188;-82
2021/08/27 07:30:12;;;;;;;0.50;0.50;;;16.00;99.90;;;;;;5067083;28;20661;-83
2021/08/27 07:32:37;;;;;;;0.27;0.27;;;16.10;99.90;;;;;;5067468;28;20260;-83
2021/08/27 07:35:04;;;;;;;1.53;1.43;;;16.30;99.90;;;;;;5069561;28;20194;-86
2021/08/27 07:37:34;;;;;;;0.90;0.40;;;16.20;99.90;;;;;;5085935;28;20189;-89
2021/08/27 07:39:59;;;;;;;1.17;0.53;;;16.00;99.90;;;;;;5064155;28;20184;-84
2021/08/27 07:42:26;;;;;;;0.67;0.63;;;16.00;99.90;;;;;;5063965;28;20212;-83
2021/08/27 07:44:52;;;;;;;0.20;0.20;;;16.20;99.90;;;;;;5074435;28;20678;-84
2021/08/27 07:47:18;;;;;;;0.30;0.30;;;16.40;99.90;;;;;;5068476;28;20195;-84
2021/08/27 07:49:44;;;;;;;0.40;0.40;;;16.30;99.90;;;;;;5072518;28;20580;-84
2021/08/27 07:52:10;;;;;;;0.40;0.40;;;16.30;99.90;;;;;;5062178;28;20296;-86
2021/08/27 07:54:36;;;;;;;0.50;0.40;;;16.30;99.90;;;;;;5063976;28;20200;-84
2021/08/27 07:57:02;;;;;;;0.40;0.40;;;16.10;99.90;;;;;;5060175;28;20719;-86
2021/08/27 07:59:39;;;;;;;0.50;0.50;;;16.60;99.90;;;;;;5062286;28;20559;-86
2021/08/27 08:02:05;;;;;;;0.50;0.50;;;16.70;99.90;;;;;;5064024;28;20211;-86
2021/08/27 08:04:30;;;;;;;0.40;0.40;;;16.90;99.90;;;;;;5062847;28;20618;-84
2021/08/27 08:06:56;;;;;;;0.27;0.27;;;16.80;99.90;;;;;;5067092;28;20268;-86
2021/08/27 08:09:21;;;;;;;0.50;0.37;;;17.20;99.90;;;;;;5063466;28;20595;-85
2021/08/27 08:11:47;;;;;;;0.70;0.70;;;17.50;99.90;;;;;;5068032;28;20212;-86
2021/08/27 08:14:14;;;;;;;0.37;0.37;;;17.60;99.90;;;;;;5067279;28;20234;-84
2021/08/27 08:16:40;;;;;;;0.43;0.43;;;17.40;99.90;;;;;;5057894;28;20174;-86
2021/08/27 08:19:06;;;;;;;0.40;0.40;;;17.60;99.90;;;;;;5064225;28;20276;-86
2021/08/27 08:21:31;;;;;;;0.43;0.43;;;17.60;99.90;;;;;;5065688;28;20278;-86
2021/08/27 08:23:57;;;;;;;0.50;0.50;;;17.70;99.90;;;;;;5064783;28;20194;-87
2021/08/27 08:26:23;;;;;;;0.53;0.30;;;17.80;99.90;;;;;;5065069;28;20181;-86
2021/08/27 08:28:52;;;;;;;5.10;0.70;;;17.80;99.90;;;;;;5055802;28;20189;-86
2021/08/27 08:31:20;;;;;;;1.43;0.50;;;17.90;99.90;;;;;;5067431;28;20216;-86
2021/08/27 08:33:46;;;;;;;0.67;0.40;;;18.00;99.90;;;;;;5066031;28;20181;-86
2021/08/27 08:36:12;;;;;;;0.40;0.40;;;17.70;99.90;;;;;;5066985;28;20188;-86
2021/08/27 08:38:37;;;;;;;2.57;0.70;;;17.60;99.90;;;;;;5067063;28;20708;-86
2021/08/27 08:41:04;;;;;;;0.20;0.20;;;17.70;99.90;;;;;;5069230;28;20216;-85
2021/08/27 08:43:30;;;;;;;0.43;0.43;;;17.50;99.90;;;;;;5066504;28;20177;-84
2021/08/27 08:45:56;;;;;;;0.30;0.30;;;18.00;99.90;;;;;;5066466;28;20185;-85
2021/08/27 08:48:23;;;;;;;0.20;0.20;;;18.50;99.90;;;;;;5068041;28;20263;-87
2021/08/27 08:50:50;;;;;;;1.00;0.90;;;17.90;99.90;;;;;;5068378;28;20201;-87
2021/08/27 08:53:17;;;;;;;0.60;0.60;;;18.50;99.90;;;;;;5066444;28;20192;-84
2021/08/27 08:55:42;;;;;;;3.73;0.33;;;18.80;99.90;;;;;;5078961;28;20173;-85
2021/08/27 08:58:08;;;;;;;0.80;0.33;;;18.60;99.90;;;;;;5057575;28;20780;-84
2021/08/27 09:00:37;;;;;;;1.73;0.97;;;18.80;99.90;;;;;;5071452;28;20216;-85
2021/08/27 09:03:03;;;;;;;0.43;0.43;;;18.20;99.90;;;;;;5071040;28;20212;-85
2021/08/27 09:05:29;;;;;;;0.20;0.20;;;18.50;99.90;;;;;;5068123;28;20568;-85
2021/08/27 09:07:55;;;;;;;0.30;0.30;;;18.60;99.90;;;;;;5068999;28;20178;-85
2021/08/27 09:10:22;;;;;;;0.80;0.80;;;18.50;99.90;;;;;;5069695;28;20185;-86
2021/08/27 09:12:49;;;;;;;0.30;0.30;;;18.40;99.90;;;;;;5067901;28;20295;-85
2021/08/27 09:15:17;;;;;;;0.57;0.57;;;18.30;99.90;;;;;;5063724;28;20530;-84
2021/08/27 09:17:46;;;;;;;0.90;0.27;;;18.20;99.90;;;;;;5080097;28;20176;-84
2021/08/27 09:20:20;;;;;;;0.20;0.20;;;18.00;99.90;;;;;;5077214;28;20196;-85
2021/08/27 09:22:47;;;;;;;0.30;0.27;;;17.60;99.90;;;;;;5084922;28;20208;-84
2021/08/27 09:25:14;;;;;;;0.73;0.40;;;17.60;99.90;;;;;;5070795;28;20200;-86
2021/08/27 09:28:06;;;;;;;0.63;0.63;;;17.50;99.90;;;;;;5081342;28;20207;-84
2021/08/27 09:30:47;;;;;;;4.23;0.77;;;17.40;99.90;;;;;;5106241;27;20196;-84
2021/08/27 09:33:20;;;;;;;0.50;0.50;;;17.30;99.90;;;;;;5066687;28;20232;-84
2021/08/27 09:36:06;;;;;;;0.37;0.37;;;17.30;99.90;;;;;;5071874;28;20185;-84
2021/08/27 09:38:34;;;;;;;0.80;0.77;;;17.80;99.90;;;;;;5063310;28;20185;-84
2021/08/27 09:41:04;;;;;;;0.30;0.30;;;17.60;99.90;;;;;;5062447;28;20231;-84
2021/08/27 09:43:39;;;;;;;0.30;0.30;;;17.90;99.90;;;;;;5068545;28;20185;-85
2021/08/27 09:46:04;;;;;;;0.20;0.20;;;18.00;99.90;;;;;;5069574;28;20211;-83
2021/08/27 09:48:37;;;;;;;0.40;0.40;;;18.30;99.90;;;;;;5074569;28;20182;-83
2021/08/27 09:51:03;;;;;;;0.60;0.60;;;18.60;99.90;;;;;;5076449;28;20576;-84
2021/08/27 09:53:42;;;;;;;0.40;0.40;;;18.70;99.90;;;;;;5073164;28;20192;-85
2021/08/27 09:56:08;;;;;;;0.20;0.20;;;18.80;99.90;;;;;;5067117;28;20180;-86
2021/08/27 09:58:51;;;;;;;0.23;0.23;;;18.90;99.90;;;;;;5073472;28;20526;-85
2021/08/27 10:01:17;;;;;;;0.60;0.60;;;18.70;99.90;;;;;;5077947;28;20208;-86
2021/08/27 10:03:44;;;;;;;0.50;0.50;;;18.40;99.90;;;;;;5077027;28;20185;-85
2021/08/27 10:06:30;;;;;;;0.40;0.40;;;18.60;99.90;;;;;;5064203;28;20203;-85
2021/08/27 10:08:56;;;;;;;0.60;0.60;;;18.60;99.90;;;;;;5073181;28;20216;-84
2021/08/27 10:11:22;;;;;;;0.53;0.53;;;18.80;99.90;;;;;;5072518;28;20229;-85
2021/08/27 10:13:48;;;;;;;0.33;0.33;;;18.90;99.90;;;;;;5056615;28;20246;-85
2021/08/27 10:16:14;;;;;;;0.30;0.30;;;18.60;99.90;;;;;;5066722;28;20188;-84
2021/08/27 10:18:41;;;;;;;0.60;0.60;;;18.90;99.90;;;;;;5067403;28;20180;-84
2021/08/27 10:21:06;;;;;;;0.70;0.23;;;18.90;99.90;;;;;;5073654;28;20669;-85
2021/08/27 10:23:32;;;;;;;0.33;0.33;;;19.30;99.90;;;;;;5073812;28;20192;-84
2021/08/27 10:26:19;;;;;;;0.40;0.40;;;19.40;99.90;;;;;;5074187;28;20204;-85
2021/08/27 10:28:45;;;;;;;1.80;0.80;;;19.70;99.90;;;;;;5057705;28;20416;-85
2021/08/27 10:31:11;;;;;;;0.90;0.90;;;19.90;99.90;;;;;;5071536;28;20746;-85
2021/08/27 10:33:40;;;;;;;3.63;1.03;;;19.90;99.90;;;;;;5077358;28;20182;-85
2021/08/27 10:36:21;;;;;;;0.53;0.53;;;19.90;99.90;;;;;;5077434;28;20177;-85
2021/08/27 10:38:51;;;;;;;1.77;1.10;;;19.70;99.90;;;;;;5065838;28;20189;-84
2021/08/27 10:41:18;;;;;;;0.53;0.53;;;19.50;99.90;;;;;;5071030;28;20201;-85
2021/08/27 10:43:57;;;;;;;0.50;0.50;;;19.50;99.90;;;;;;5077145;28;20726;-85
2021/08/27 10:46:45;;;;;;;1.03;0.40;;;19.20;99.90;;;;;;5078574;28;20178;-85
2021/08/27 10:49:45;;;;;;;0.57;0.57;;;19.30;99.90;;;;;;5056993;28;20753;-86
2021/08/27 10:52:24;;;;;;;0.73;0.70;;;19.30;99.90;;;;;;5064028;28;20229;-85
2021/08/27 10:55:02;;;;;;;2.23;0.60;;;19.10;99.90;;;;;;5061273;28;20565;-88
2021/08/27 10:57:27;;;;;;;0.77;0.53;;;19.50;99.90;;;;;;5068836;28;20186;-85
2021/08/27 10:59:59;;;;;;;0.47;0.47;;;19.80;99.90;;;;;;5070550;28;20189;-87
2021/08/27 11:02:25;;;;;;;2.40;1.00;;;19.70;99.90;;;;;;5067337;28;20686;-86
2021/08/27 11:04:51;;;;;;;0.40;0.40;;;19.20;99.90;;;;;;5062740;28;20192;-86
2021/08/27 11:07:20;;;;;;;0.70;0.47;;;19.00;99.90;;;;;;5069492;28;20191;-86
2021/08/27 11:10:07;;;;;;;0.40;0.40;;;18.80;99.90;;;;;;5066626;28;20211;-85
2021/08/27 11:12:33;;;;;;;2.00;1.70;;;18.50;99.90;;;;;;5067062;28;20288;-86
2021/08/27 11:15:25;;;;;;;0.70;0.70;;;18.60;99.90;;;;;;5064256;28;20261;-86
2021/08/27 11:18:24;;;;;;;0.23;0.23;;;18.90;99.90;;;;;;5100160;28;20189;-86
2021/08/27 11:20:51;;;;;;;1.03;0.67;;;19.00;99.90;;;;;;5069110;28;20282;-86
2021/08/27 11:23:18;;;;;;;1.07;0.70;;;19.20;99.90;;;;;;5057751;28;20183;-86
2021/08/27 11:26:04;;;;;;;0.50;0.50;;;19.10;99.90;;;;;;5064087;28;20326;-86
2021/08/27 11:28:32;;;;;;;0.60;0.60;;;19.00;99.90;;;;;;5059229;28;20656;-86
2021/08/27 11:31:06;;;;;;;0.57;0.30;;;19.10;99.90;;;;;;5060407;28;20197;-86
2021/08/27 11:33:40;;;;;;;0.53;0.40;;;19.30;99.90;;;;;;5062849;28;20178;-86
2021/08/27 11:36:07;;;;;;;0.40;0.40;;;19.30;99.90;;;;;;5066514;28;20315;-86
2021/08/27 11:38:32;;;;;;;0.50;0.50;;;19.50;99.90;;;;;;5065494;28;20184;-86
2021/08/27 11:41:02;;;;;;;0.43;0.43;;;19.90;99.90;;;;;;5065832;28;20193;-85
2021/08/27 11:43:35;;;;;;;0.73;0.73;;;20.00;99.90;;;;;;5065234;28;20184;-85
2021/08/27 11:46:05;;;;;;;0.33;0.30;;;19.60;99.90;;;;;;5058281;28;20248;-86
2021/08/27 11:48:39;;;;;;;0.90;0.90;;;19.40;99.90;;;;;;5067640;28;20258;-86
2021/08/27 11:51:09;;;;;;;0.93;0.67;;;19.70;99.90;;;;;;5066111;28;20201;-86
2021/08/27 11:53:35;;;;;;;1.13;0.40;;;19.80;99.90;;;;;;5064691;28;20237;-86
2021/08/27 11:56:00;;;;;;;0.50;0.50;;;20.20;99.90;;;;;;5063750;28;20193;-86
2021/08/27 11:58:44;;;;;;;0.43;0.40;;;21.00;99.90;;;;;;5068393;28;20181;-85
2021/08/27 12:01:27;;;;;;;0.70;0.70;;;20.80;99.90;;;;;;5062948;28;20206;-86
2021/08/27 12:03:53;;;;;;;0.60;0.60;;;20.80;99.90;;;;;;5062245;28;20182;-86
2021/08/27 12:06:20;;;;;;;0.60;0.40;;;20.70;99.90;;;;;;5064516;28;20205;-85
2021/08/27 12:08:48;;;;;;;0.20;0.20;;;20.40;99.90;;;;;;5069180;28;20196;-86
2021/08/27 12:11:14;;;;;;;0.47;0.47;;;20.80;99.90;;;;;;5069448;28;20645;-85
2021/08/27 12:13:52;;;;;;;0.70;0.50;;;21.00;99.90;;;;;;5062505;28;20173;-85
2021/08/27 12:16:29;;;;;;;0.30;0.30;;;21.30;99.90;;;;;;5065531;28;20592;-89
2021/08/27 12:18:56;;;;;;;0.40;0.40;;;21.10;99.90;;;;;;5071055;28;20207;-86
2021/08/27 12:21:24;;;;;;;0.73;0.73;;;21.50;99.90;;;;;;5067953;28;20226;-88
2021/08/27 12:24:08;;;;;;;1.40;0.80;;;21.50;99.90;;;;;;5055410;28;20189;-87
2021/08/27 12:26:37;;;;;;;0.60;0.57;;;21.20;99.90;;;;;;5052503;28;20229;-86
2021/08/27 12:29:02;;;;;;;0.33;0.33;;;21.10;99.90;;;;;;5061948;28;20189;-86
2021/08/27 12:31:38;;;;;;;0.63;0.63;;;21.30;99.90;;;;;;5070871;28;20213;-86
2021/08/27 12:34:04;;;;;;;0.50;0.50;;;21.30;99.90;;;;;;5062486;28;20181;-86
2021/08/27 12:36:38;;;;;;;0.83;0.80;;;21.30;99.90;;;;;;5064719;28;20278;-86
2021/08/27 12:39:05;;;;;;;0.43;0.43;;;21.40;99.90;;;;;;5050947;28;20197;-86
2021/08/27 12:41:31;;;;;;;1.13;1.13;;;21.20;99.90;;;;;;5062411;28;20207;-86
2021/08/27 12:44:17;;;;;;;0.43;0.43;;;21.10;99.90;;;;;;5057195;28;20196;-86
2021/08/27 12:46:48;;;;;;;0.30;0.30;;;20.90;99.90;;;;;;5064138;28;20571;-86
2021/08/27 12:49:19;;;;;;;1.07;0.63;;;20.70;99.90;;;;;;5068924;28;20211;-86
2021/08/27 12:51:51;;;;;;;0.40;0.40;;;20.50;99.90;;;;;;5066134;28;20672;-87
2021/08/27 12:54:17;;;;;;;0.83;0.50;;;20.30;99.90;;;;;;5071505;28;20250;-86
2021/08/27 12:57:01;;;;;;;0.30;0.30;;;20.60;99.90;;;;;;5063576;28;20177;-86
2021/08/27 12:59:26;;;;;;;0.57;0.57;;;20.90;99.90;;;;;;5070324;28;20196;-86
2021/08/27 13:01:59;;;;;;;0.47;0.40;;;21.00;99.90;;;;;;5067977;28;20201;-86